Delhi, Illinois
Current Conditions -  °F | °C
As of 5:54 AM on Monday 22 Dec 2014 (Local Time) from KSET Reporting Station
Light Rain Light Rain  
Wind Chill: 32°   Ceiling: 3000
Heat Index: 38°   Visibility: 4mi
Dew Point: 36°   Wind: 8mph
Humidity: 93%   Direction: 90°E
Pressure: 29.8"   Gusts: NA
Location:  39.1259°N, 90.3475°W
Report Text: KSET 221154Z AUTO 09007KT 4SM -RA BR BKN030 OVC035 03/02 A2980 RMK AO2 RAB10 SLP091 P0003 60003 70003 T00330022 10044 20033 56024
Loading
Personal Weather Stations






























Interactive Weather Map New forecast layout! Learn more

10-Day Weather Forecast

Advertisements
Track Severe Weather on mobile